createdAt,value
2022-08-11T00:02:38.726Z,2.97
2022-08-11T00:05:11.868Z,2.95
2022-08-11T00:07:52.007Z,2.78
2022-08-11T00:10:24.227Z,2.97
2022-08-11T00:12:56.784Z,2.83
2022-08-11T00:15:26.797Z,3.17
2022-08-11T00:17:58.874Z,2.88
2022-08-11T00:20:40.091Z,3.28
2022-08-11T00:23:11.860Z,3.17
2022-08-11T00:25:43.206Z,3.42
2022-08-11T00:28:37.347Z,2.95
2022-08-11T00:31:51.868Z,3.28
2022-08-11T00:34:28.100Z,2.88
2022-08-11T00:36:58.997Z,3.35
2022-08-11T00:39:29.420Z,3.25
2022-08-11T00:42:11.129Z,3.25
2022-08-11T00:44:59.335Z,3.35
2022-08-11T00:47:33.353Z,3.50
2022-08-11T00:50:37.970Z,3.38
2022-08-11T00:53:05.001Z,3.33
2022-08-11T00:55:47.065Z,3.55
2022-08-11T00:58:54.320Z,3.20
2022-08-11T01:01:48.072Z,3.33
2022-08-11T01:04:23.903Z,3.08
2022-08-11T01:06:59.948Z,3.00
2022-08-11T01:09:49.950Z,3.25
2022-08-11T01:12:32.659Z,3.30
2022-08-11T01:15:18.286Z,3.40
2022-08-11T01:17:51.446Z,3.42
2022-08-11T01:20:59.236Z,3.55
2022-08-11T01:23:38.374Z,3.42
2022-08-11T01:26:43.928Z,3.30
2022-08-11T01:29:23.368Z,3.38
2022-08-11T01:32:15.200Z,3.38
2022-08-11T01:35:30.649Z,3.30
2022-08-11T01:38:33.822Z,3.60
2022-08-11T01:41:26.740Z,3.42
2022-08-11T01:44:31.346Z,3.15
2022-08-11T01:47:52.478Z,3.20
2022-08-11T01:50:46.551Z,3.47
2022-08-11T01:53:35.748Z,3.28
2022-08-11T01:56:13.383Z,3.50
2022-08-11T01:58:55.948Z,3.05
2022-08-11T02:01:29.188Z,3.55
2022-08-11T02:04:19.747Z,3.15
2022-08-11T02:07:13.779Z,3.50
2022-08-11T02:09:58.045Z,3.25
2022-08-11T02:12:58.348Z,2.97
2022-08-11T02:15:38.293Z,3.70
2022-08-11T02:18:53.015Z,3.38
2022-08-11T02:21:46.947Z,3.53
2022-08-11T02:24:28.015Z,3.17
2022-08-11T02:27:08.557Z,3.20
2022-08-11T02:29:46.469Z,3.03
2022-08-11T02:32:43.754Z,3.80
2022-08-11T02:35:29.518Z,3.58
2022-08-11T02:38:18.313Z,3.45
2022-08-11T02:41:51.863Z,3.20
2022-08-11T02:45:13.083Z,3.20
2022-08-11T02:48:09.976Z,3.50
2022-08-11T02:50:49.890Z,3.47
2022-08-11T02:53:30.982Z,3.67
2022-08-11T02:56:39.243Z,3.45
2022-08-11T02:59:47.131Z,3.72
2022-08-11T03:02:38.366Z,3.60
2022-08-11T03:05:12.339Z,3.65
2022-08-11T03:08:01.708Z,3.03
2022-08-11T03:10:40.143Z,3.60
2022-08-11T03:13:41.772Z,3.65
2022-08-11T03:16:45.886Z,3.80
2022-08-11T03:19:23.521Z,3.28
2022-08-11T03:22:02.611Z,3.80
2022-08-11T03:24:42.695Z,3.38
2022-08-11T03:27:42.122Z,3.67
2022-08-11T03:30:21.518Z,3.83
2022-08-11T03:33:37.189Z,3.50
2022-08-11T03:36:23.225Z,4.00
2022-08-11T03:39:06.217Z,3.50
2022-08-11T03:42:02.140Z,3.72
2022-08-11T03:44:50.307Z,3.83
2022-08-11T03:47:52.454Z,3.63
2022-08-11T03:50:55.513Z,3.78
2022-08-11T03:54:10.126Z,3.60
2022-08-11T03:56:59.160Z,3.35
2022-08-11T03:59:54.144Z,3.58
2022-08-11T04:02:30.059Z,3.50
2022-08-11T04:05:45.716Z,3.47
2022-08-11T04:08:38.309Z,3.47
2022-08-11T04:11:48.899Z,3.60
2022-08-11T04:14:41.590Z,4.20
2022-08-11T04:17:57.990Z,3.88
2022-08-11T04:20:51.903Z,3.50
2022-08-11T04:24:36.134Z,3.50
2022-08-11T04:27:05.206Z,3.65
2022-08-11T04:30:02.995Z,3.85
2022-08-11T04:32:31.930Z,3.80
2022-08-11T04:35:32.575Z,3.30
2022-08-11T04:38:30.662Z,3.60
2022-08-11T04:41:34.935Z,3.38
2022-08-11T04:44:46.087Z,3.70
2022-08-11T04:48:03.958Z,4.30
2022-08-11T04:51:34.601Z,3.42
2022-08-11T04:54:37.381Z,3.10
2022-08-11T04:57:35.703Z,3.38
2022-08-11T05:00:28.179Z,3.58
2022-08-11T05:03:01.068Z,3.55
2022-08-11T05:05:56.637Z,3.50
2022-08-11T05:08:35.790Z,3.28
2022-08-11T05:11:18.183Z,3.13
2022-08-11T05:14:06.306Z,3.78
2022-08-11T05:17:14.022Z,3.80
2022-08-11T05:20:05.428Z,3.97
2022-08-11T05:22:52.948Z,3.10
2022-08-11T05:26:45.212Z,3.90
2022-08-11T05:29:19.575Z,3.25
2022-08-11T05:32:14.872Z,3.40
2022-08-11T05:34:56.859Z,3.30
2022-08-11T05:38:06.328Z,3.20
2022-08-11T05:40:53.350Z,3.17
2022-08-11T05:44:20.552Z,2.90
2022-08-11T05:46:59.764Z,3.35
2022-08-11T05:49:51.911Z,3.00
2022-08-11T05:52:47.092Z,2.95
2022-08-11T05:55:35.910Z,3.13
2022-08-11T05:58:23.188Z,2.75
2022-08-11T06:00:50.606Z,2.92
2022-08-11T06:03:26.905Z,3.20
2022-08-11T06:05:54.418Z,2.92
2022-08-11T06:08:30.472Z,3.13
2022-08-11T06:11:05.807Z,2.90
2022-08-11T06:13:33.967Z,3.20
2022-08-11T06:16:06.315Z,2.80
2022-08-11T06:18:35.144Z,2.90
2022-08-11T06:21:11.473Z,2.80
2022-08-11T06:23:42.656Z,2.58
2022-08-11T06:26:11.787Z,2.72
2022-08-11T06:28:41.525Z,2.40
2022-08-11T06:31:19.112Z,2.53
2022-08-11T06:33:48.936Z,2.72
2022-08-11T06:36:32.161Z,2.60
2022-08-11T06:39:18.672Z,2.70
2022-08-11T06:41:52.124Z,2.72
2022-08-11T06:44:33.817Z,2.63
2022-08-11T06:47:12.446Z,2.55
2022-08-11T06:50:07.926Z,2.58
2022-08-11T06:52:40.698Z,2.50
2022-08-11T06:55:58.965Z,2.40
2022-08-11T06:58:51.602Z,2.55
2022-08-11T07:01:49.420Z,2.35
2022-08-11T07:04:35.765Z,2.22
2022-08-11T07:07:33.487Z,2.50
2022-08-11T07:10:26.119Z,2.38
2022-08-11T07:13:45.068Z,2.28
2022-08-11T07:16:13.122Z,2.20
2022-08-11T07:19:01.468Z,1.80
2022-08-11T07:22:00.845Z,2.22
2022-08-11T07:25:02.257Z,2.10
2022-08-11T07:28:01.391Z,2.10
2022-08-11T07:30:29.913Z,1.85
2022-08-11T07:32:59.990Z,2.05
2022-08-11T07:35:49.853Z,2.20
2022-08-11T07:38:25.506Z,1.80
2022-08-11T07:40:52.983Z,1.67
2022-08-11T07:43:20.100Z,1.90
2022-08-11T07:46:22.847Z,1.80
2022-08-11T07:49:09.055Z,1.70
2022-08-11T07:51:56.241Z,1.73
2022-08-11T07:54:24.001Z,1.50
2022-08-11T07:57:09.202Z,1.80
2022-08-11T08:00:03.530Z,1.95
2022-08-11T08:03:02.431Z,2.22
2022-08-11T08:05:50.027Z,2.20
2022-08-11T08:08:36.663Z,2.50
2022-08-11T08:11:27.542Z,2.75
2022-08-11T08:14:13.957Z,3.20
2022-08-11T08:17:01.119Z,3.05
2022-08-11T08:19:29.221Z,2.83
2022-08-11T08:22:11.089Z,3.50
2022-08-11T08:24:44.877Z,2.60
2022-08-11T08:27:15.371Z,2.35
2022-08-11T08:30:03.976Z,2.10
2022-08-11T08:32:32.409Z,1.88
2022-08-11T08:35:00.080Z,2.35
2022-08-11T08:37:47.035Z,2.20
2022-08-11T08:40:15.602Z,1.85
2022-08-11T08:42:51.459Z,1.83
2022-08-11T08:45:19.023Z,2.00
2022-08-11T08:48:07.684Z,2.00
2022-08-11T08:50:59.159Z,1.70
2022-08-11T08:53:31.971Z,1.98
2022-08-11T08:56:01.201Z,1.70
2022-08-11T08:58:30.711Z,1.70
2022-08-11T09:00:59.991Z,1.70
2022-08-11T09:04:07.298Z,1.90
2022-08-11T09:06:17.297Z,1.55
2022-08-11T09:08:45.549Z,1.60
2022-08-11T09:11:33.751Z,2.05
2022-08-11T09:14:05.840Z,1.70
2022-08-11T09:16:35.098Z,1.65
2022-08-11T09:19:02.883Z,1.38
2022-08-11T09:21:48.236Z,1.60
2022-08-11T09:24:36.888Z,1.80
2022-08-11T09:27:08.797Z,1.90
2022-08-11T09:29:38.150Z,1.50
2022-08-11T09:32:07.815Z,1.60
2022-08-11T09:34:37.407Z,1.70
2022-08-11T09:37:55.569Z,1.63
2022-08-11T09:40:30.246Z,1.90
2022-08-11T09:43:17.568Z,1.50
2022-08-11T09:45:52.076Z,2.00
2022-08-11T09:48:26.580Z,1.58
2022-08-11T09:50:56.229Z,1.63
2022-08-11T09:53:36.255Z,1.60
2022-08-11T09:56:33.992Z,1.63
2022-08-11T09:59:04.591Z,1.50
2022-08-11T10:01:41.836Z,1.83
2022-08-11T10:04:15.413Z,1.80
2022-08-11T10:07:04.936Z,1.77
2022-08-11T10:09:44.423Z,1.58
2022-08-11T10:12:22.485Z,2.00
2022-08-11T10:15:13.280Z,1.98
2022-08-11T10:18:03.596Z,1.50
2022-08-11T10:20:34.357Z,1.70
2022-08-11T10:23:21.943Z,1.60
2022-08-11T10:26:08.787Z,1.98
2022-08-11T10:29:02.108Z,1.98
2022-08-11T10:31:57.704Z,1.75
2022-08-11T10:34:29.381Z,1.63
2022-08-11T10:37:03.161Z,2.20
2022-08-11T10:39:31.868Z,1.80
2022-08-11T10:42:34.984Z,1.60
2022-08-11T10:45:30.705Z,1.60
2022-08-11T10:47:58.671Z,1.55
2022-08-11T10:50:45.634Z,1.58
2022-08-11T10:53:33.408Z,1.60
2022-08-11T10:56:21.620Z,1.60
2022-08-11T10:58:49.588Z,1.60
2022-08-11T11:01:23.834Z,1.77
2022-08-11T11:04:16.916Z,1.45
2022-08-11T11:06:53.193Z,1.48
2022-08-11T11:09:33.093Z,1.60
2022-08-11T11:12:39.739Z,1.67
2022-08-11T11:15:26.399Z,1.35
2022-08-11T11:18:07.160Z,1.50
2022-08-11T11:20:47.132Z,1.48
2022-08-11T11:23:20.523Z,1.58
2022-08-11T11:26:06.756Z,1.30
2022-08-11T11:28:56.536Z,1.33
2022-08-11T11:31:32.771Z,1.60
2022-08-11T11:34:47.871Z,1.10
2022-08-11T11:37:23.180Z,1.48
2022-08-11T11:39:51.094Z,1.30
2022-08-11T11:42:19.217Z,1.25
2022-08-11T11:44:48.050Z,1.23
2022-08-11T11:47:16.968Z,1.40
2022-08-11T11:49:45.124Z,1.50
2022-08-11T11:52:19.957Z,1.10
2022-08-11T11:54:51.323Z,1.30
2022-08-11T11:57:39.530Z,1.20
2022-08-11T12:00:33.331Z,1.05
2022-08-11T12:03:05.790Z,1.27
2022-08-11T12:05:36.346Z,1.30
2022-08-11T12:08:17.708Z,1.40
2022-08-11T12:11:25.163Z,1.30
2022-08-11T12:13:53.857Z,1.30
2022-08-11T12:16:32.774Z,1.30
2022-08-11T12:19:35.551Z,1.33
2022-08-11T12:22:22.634Z,1.27
2022-08-11T12:25:12.861Z,1.48
2022-08-11T12:27:41.277Z,1.20
2022-08-11T12:30:09.541Z,1.02
2022-08-11T12:32:40.239Z,1.20
2022-08-11T12:35:08.156Z,1.00
2022-08-11T12:37:43.927Z,1.08
2022-08-11T12:41:13.732Z,1.00
2022-08-11T12:43:56.450Z,1.10
2022-08-11T12:46:32.101Z,0.90
2022-08-11T12:49:26.175Z,0.95
2022-08-11T12:52:13.614Z,1.00
2022-08-11T12:54:49.906Z,1.00
2022-08-11T12:58:00.399Z,1.00
2022-08-11T13:00:48.451Z,1.00
2022-08-11T13:03:37.493Z,0.90
2022-08-11T13:06:05.756Z,1.10
2022-08-11T13:08:35.852Z,0.73
2022-08-11T13:11:21.997Z,1.00
2022-08-11T13:13:55.085Z,1.00
2022-08-11T13:16:57.013Z,0.95
2022-08-11T13:19:24.365Z,1.00
2022-08-11T13:21:53.826Z,1.00
2022-08-11T13:24:23.306Z,0.93
2022-08-11T13:26:51.566Z,0.90
2022-08-11T13:29:27.539Z,0.95
2022-08-11T13:31:58.461Z,1.10
2022-08-11T13:34:27.494Z,0.93
2022-08-11T13:36:57.170Z,0.82
2022-08-11T13:39:27.420Z,0.90
2022-08-11T13:42:00.446Z,0.90
2022-08-11T13:44:30.391Z,0.90
2022-08-11T13:47:09.492Z,1.10
2022-08-11T13:49:40.286Z,0.82
2022-08-11T13:52:13.114Z,1.00
2022-08-11T13:54:41.738Z,1.00
2022-08-11T13:57:13.601Z,1.17
2022-08-11T14:00:23.486Z,1.30
2022-08-11T14:02:57.294Z,1.10
2022-08-11T14:05:31.777Z,1.40
2022-08-11T14:08:04.618Z,1.20
2022-08-11T14:10:34.683Z,1.33
2022-08-11T14:13:27.882Z,1.10
2022-08-11T14:16:02.609Z,1.13
2022-08-11T14:18:33.033Z,1.20
2022-08-11T14:21:23.882Z,1.08
2022-08-11T14:24:01.466Z,0.90
2022-08-11T14:26:31.356Z,1.13
2022-08-11T14:29:05.729Z,1.00
2022-08-11T14:31:37.999Z,1.25
2022-08-11T14:34:07.704Z,1.00
2022-08-11T14:36:45.549Z,1.30
2022-08-11T14:39:17.217Z,1.80
2022-08-11T14:42:12.388Z,1.38
2022-08-11T14:45:20.873Z,1.27
2022-08-11T14:47:52.886Z,1.08
2022-08-11T14:50:23.998Z,0.98
2022-08-11T14:52:59.177Z,1.42
2022-08-11T14:55:47.610Z,1.13
2022-08-11T14:58:20.600Z,1.02
2022-08-11T15:00:55.175Z,0.95
2022-08-11T15:03:28.386Z,1.10
2022-08-11T15:06:00.652Z,1.35
2022-08-11T15:08:52.687Z,1.33
2022-08-11T15:11:47.424Z,1.27
2022-08-11T15:14:39.022Z,1.02
2022-08-11T15:17:10.348Z,1.20
2022-08-11T15:20:04.781Z,1.02
2022-08-11T15:22:51.861Z,1.08
2022-08-11T15:25:21.029Z,1.35
2022-08-11T15:28:09.951Z,1.20
2022-08-11T15:30:56.868Z,1.10
2022-08-11T15:33:46.086Z,1.20
2022-08-11T15:36:34.243Z,1.20
2022-08-11T15:39:20.958Z,0.95
2022-08-11T15:42:21.621Z,1.00
2022-08-11T15:45:13.816Z,1.00
2022-08-11T15:48:05.296Z,0.85
2022-08-11T15:50:37.592Z,1.00
2022-08-11T15:53:16.451Z,1.13
2022-08-11T15:55:46.025Z,1.17
2022-08-11T15:58:32.858Z,1.00
2022-08-11T16:01:21.501Z,1.08
2022-08-11T16:04:12.544Z,1.10
2022-08-11T16:06:58.197Z,1.17
2022-08-11T16:09:41.369Z,1.10
2022-08-11T16:12:24.112Z,1.02
2022-08-11T16:15:28.720Z,0.90
2022-08-11T16:18:04.807Z,0.90
2022-08-11T16:20:33.139Z,0.98
2022-08-11T16:23:04.770Z,1.10
2022-08-11T16:27:04.127Z,1.35
2022-08-11T16:28:24.336Z,1.20
2022-08-11T16:30:54.447Z,1.42
2022-08-11T16:33:48.585Z,1.50
2022-08-11T16:36:33.067Z,1.60
2022-08-11T16:39:02.993Z,1.30
2022-08-11T16:41:51.969Z,1.15
2022-08-11T16:44:40.345Z,1.08
2022-08-11T16:47:13.188Z,1.85
2022-08-11T16:49:52.698Z,2.20
2022-08-11T16:52:22.689Z,2.20
2022-08-11T16:54:50.143Z,2.33
2022-08-11T16:57:52.536Z,2.78
2022-08-11T17:00:19.611Z,2.45
2022-08-11T17:03:09.945Z,2.70
2022-08-11T17:06:04.062Z,2.80
2022-08-11T17:08:58.681Z,2.47
2022-08-11T17:11:52.042Z,2.03
2022-08-11T17:14:35.709Z,2.25
2022-08-11T17:17:06.116Z,2.25
2022-08-11T17:20:41.420Z,2.13
2022-08-11T17:22:47.284Z,2.50
2022-08-11T17:25:16.106Z,2.20
2022-08-11T17:27:44.543Z,2.78
2022-08-11T17:30:12.860Z,2.95
2022-08-11T17:33:05.537Z,2.53
2022-08-11T17:35:39.078Z,2.38
2022-08-11T17:38:12.644Z,2.45
2022-08-11T17:44:13.657Z,1.75
2022-08-11T17:47:05.745Z,1.80
2022-08-11T17:49:37.678Z,1.70
2022-08-11T17:52:31.882Z,1.70
2022-08-11T17:55:51.663Z,1.48
2022-08-11T17:58:28.275Z,2.03
2022-08-11T18:01:01.991Z,3.40
2022-08-11T18:03:40.176Z,3.13
2022-08-11T18:06:12.445Z,2.50
2022-08-11T18:09:03.367Z,1.40
2022-08-11T18:12:06.571Z,1.00
2022-08-11T18:15:00.716Z,1.05
2022-08-11T18:17:47.541Z,1.15
2022-08-11T18:20:33.243Z,1.20
2022-08-11T18:23:42.063Z,1.10
2022-08-11T18:26:30.666Z,1.20
2022-08-11T18:29:17.048Z,1.13
2022-08-11T18:32:10.304Z,1.30
2022-08-11T18:35:00.493Z,1.48
2022-08-11T18:37:54.045Z,1.35
2022-08-11T18:40:47.034Z,1.60
2022-08-11T18:43:38.435Z,1.48
2022-08-11T18:46:27.189Z,1.55
2022-08-11T18:49:19.893Z,1.20
2022-08-11T18:52:12.601Z,1.38
2022-08-11T18:55:01.769Z,1.50
2022-08-11T18:57:53.723Z,1.33
2022-08-11T19:00:44.285Z,1.20
2022-08-11T19:03:43.324Z,1.30
2022-08-11T19:06:40.729Z,1.50
2022-08-11T19:09:30.673Z,1.13
2022-08-11T19:12:20.872Z,1.45
2022-08-11T19:15:09.880Z,1.60
2022-08-11T19:17:58.819Z,1.38
2022-08-11T19:20:48.016Z,1.40
2022-08-11T19:23:54.016Z,1.60
2022-08-11T19:26:51.012Z,1.40
2022-08-11T19:30:11.070Z,1.42
2022-08-11T19:32:59.204Z,1.80
2022-08-11T19:35:46.232Z,1.67
2022-08-11T19:38:32.976Z,1.92
2022-08-11T19:41:56.380Z,2.00
2022-08-11T19:44:27.405Z,1.88
2022-08-11T19:47:15.136Z,1.85
2022-08-11T19:50:03.145Z,1.83
2022-08-11T19:52:49.190Z,2.70
2022-08-11T19:55:37.352Z,1.92
2022-08-11T19:58:26.546Z,2.63
2022-08-11T20:03:57.730Z,1.85
2022-08-11T20:06:44.703Z,2.80
2022-08-11T20:10:06.089Z,2.50
2022-08-11T20:12:41.352Z,2.38
2022-08-11T20:15:28.994Z,2.53
2022-08-11T20:18:16.123Z,2.15
2022-08-11T20:21:01.642Z,2.90
2022-08-11T20:26:33.715Z,1.88
2022-08-11T20:29:47.823Z,2.42
2022-08-11T20:32:34.901Z,2.70
2022-08-11T20:35:22.913Z,2.42
2022-08-11T20:38:13.748Z,2.25
2022-08-11T20:41:01.325Z,2.60
2022-08-11T20:44:08.136Z,2.28
2022-08-11T20:46:57.820Z,2.53
2022-08-11T20:49:53.748Z,2.75
2022-08-11T20:52:47.355Z,2.38
2022-08-11T20:55:51.902Z,2.65
2022-08-11T20:59:13.881Z,2.10
2022-08-11T21:01:52.345Z,2.35
2022-08-11T21:04:54.075Z,2.85
2022-08-11T21:10:53.772Z,2.80
2022-08-11T21:13:52.409Z,2.70
2022-08-11T21:16:47.752Z,2.30
2022-08-11T21:20:00.215Z,2.50
2022-08-11T21:23:05.889Z,2.63
2022-08-11T21:26:02.313Z,2.58
2022-08-11T21:28:53.866Z,2.47
2022-08-11T21:31:43.236Z,2.30
2022-08-11T21:34:31.104Z,2.58
2022-08-11T21:37:20.192Z,2.50
2022-08-11T21:40:08.376Z,2.20
2022-08-11T21:42:58.933Z,2.40
2022-08-11T21:45:46.119Z,2.95
2022-08-11T21:48:31.964Z,2.38
2022-08-11T21:54:03.646Z,2.25
2022-08-11T21:56:53.746Z,2.17
2022-08-11T22:00:18.865Z,2.33
2022-08-11T22:03:07.144Z,2.10
2022-08-11T22:06:05.136Z,2.08
2022-08-11T22:08:53.845Z,2.53
2022-08-11T22:11:39.971Z,2.22
2022-08-11T22:14:25.648Z,2.05
2022-08-11T22:17:11.397Z,1.88
2022-08-11T22:20:00.559Z,2.40
2022-08-11T22:22:52.433Z,2.20
2022-08-11T22:25:50.987Z,2.33
2022-08-11T22:28:38.639Z,2.28
2022-08-11T22:31:25.639Z,2.30
2022-08-11T22:34:12.589Z,2.08
2022-08-11T22:37:01.558Z,2.05
2022-08-11T22:39:59.904Z,2.15
2022-08-11T22:42:50.135Z,2.15
2022-08-11T22:45:36.713Z,2.17
2022-08-11T22:48:24.582Z,2.13
2022-08-11T22:51:11.113Z,2.22
2022-08-11T22:53:59.095Z,2.20
2022-08-11T22:56:49.125Z,1.98
2022-08-11T22:59:37.940Z,2.28
2022-08-11T23:02:25.350Z,2.13
2022-08-11T23:05:11.878Z,2.10
2022-08-11T23:07:57.891Z,2.28
2022-08-11T23:13:29.701Z,1.85
2022-08-11T23:16:20.349Z,2.20
2022-08-11T23:19:08.766Z,1.98
2022-08-11T23:21:54.761Z,1.90
2022-08-11T23:27:29.059Z,2.30
2022-08-11T23:30:19.221Z,2.20
2022-08-11T23:33:08.360Z,1.70
2022-08-11T23:36:03.348Z,2.30
2022-08-11T23:38:51.869Z,2.38
2022-08-11T23:41:40.040Z,2.30
2022-08-11T23:44:29.003Z,2.20
2022-08-11T23:47:19.741Z,2.22
2022-08-11T23:50:06.864Z,2.45
2022-08-11T23:52:53.880Z,2.80
2022-08-11T23:55:40.983Z,2.15
2022-08-11T23:58:27.889Z,2.30
